Stations météo

réclame
Mon MeteoGroup
Salsburgh, Grande-Bretagne (99024): Température de l'air & dewpoint: 20.09.2018 16:00:00 - 26.09.2018 16:00:00 (BST)Salsburgh, Grande-Bretagne (99024): Vitesse du vent & gusts: 20.09.2018 16:00:00 - 26.09.2018 16:00:00 (BST)Salsburgh, Grande-Bretagne (99024): Direction du vent: 20.09.2018 16:00:00 - 26.09.2018 16:00:00 (BST)Salsburgh, Grande-Bretagne (99024): Quantités de précipitations: 20.09.2018 16:00:00 - 26.09.2018 16:00:00 (BST)
Date & Time tt [°C] td [°C] ff [km/h] ff [knt] fx [km/h] fx [knt] dd rr [mm]
26.09.2018 16:00:00 - - - - - - - -
26.09.2018 15:00:00 14,0 13,9 41 22 59 32 W 0,0
26.09.2018 14:00:00 14,2 14,2 42 23 61 33 W 0,0
26.09.2018 13:00:00 14,1 14,1 41 22 57 31 WSW 0,6
26.09.2018 12:00:00 14,1 14,1 41 22 55 30 WSW 1,2
26.09.2018 11:00:00 14,0 14,0 41 22 61 33 SW 1,0
26.09.2018 10:00:00 14,0 14,0 42 23 65 35 WSW 0,8
26.09.2018 09:00:00 14,3 14,2 44 24 65 35 WSW 0,6
26.09.2018 08:00:00 14,1 14,0 42 23 61 33 SW 0,2
26.09.2018 07:00:00 14,0 14,0 44 24 68 37 SW 0,0
26.09.2018 06:00:00 13,5 13,5 48 26 70 38 SSW 0,2
26.09.2018 05:00:00 13,0 12,9 44 24 74 40 SW 0,0
26.09.2018 04:00:00 12,7 12,5 42 23 57 31 SW 0,8
26.09.2018 03:00:00 12,2 11,8 42 23 61 33 SSW 1,4
26.09.2018 02:00:00 11,9 11,3 44 24 59 32 SSW 0,0
26.09.2018 01:00:00 11,6 11,0 39 21 57 31 SSW 0,0
26.09.2018 00:00:00 11,8 10,8 42 23 61 33 SSW 0,0
25.09.2018 23:00:00 11,5 10,7 39 21 54 29 SSW 0,0
25.09.2018 22:00:00 11,3 10,3 39 21 57 31 SSW 0,0
25.09.2018 21:00:00 10,7 10,3 44 24 61 33 SSW 0,0
25.09.2018 20:00:00 10,2 10,0 44 24 59 32 SSW 0,0
25.09.2018 19:00:00 10,1 9,6 41 22 59 32 SSW 0,4
25.09.2018 18:00:00 9,9 8,9 35 19 54 29 SSW 0,2
25.09.2018 17:00:00 10,1 7,9 41 22 68 37 SSW 0,0
25.09.2018 16:00:00 11,0 7,0 41 22 57 31 SSW 0,0
25.09.2018 15:00:00 10,0 6,4 39 21 63 34 SSW 0,2
25.09.2018 14:00:00 11,3 5,7 42 23 65 35 SSW 0,0
25.09.2018 13:00:00 10,8 4,5 44 24 70 38 SSW 0,0
25.09.2018 12:00:00 10,5 4,7 46 25 61 33 SSW 0,0
25.09.2018 11:00:00 10,7 6,6 42 23 61 33 SSW 0,0
25.09.2018 10:00:00 8,9 7,0 28 15 - - S 0,0
25.09.2018 09:00:00 7,3 5,9 22 12 - - S 0,0
25.09.2018 08:00:00 6,5 5,2 22 12 - - S 0,0
25.09.2018 07:00:00 5,9 4,8 22 12 - - S 0,0
25.09.2018 06:00:00 6,2 5,2 22 12 - - S 0,0
25.09.2018 05:00:00 6,1 5,4 22 12 - - S 0,0
25.09.2018 04:00:00 6,1 5,7 18 10 - - S 0,0
25.09.2018 03:00:00 6,4 6,2 18 10 - - S 0,0
25.09.2018 02:00:00 7,0 6,8 18 10 - - S 0,0
25.09.2018 01:00:00 6,5 6,3 15 8 - - S 0,0
25.09.2018 00:00:00 6,6 6,3 15 8 - - S 0,0
24.09.2018 23:00:00 7,0 6,0 13 7 - - SSW 0,0
24.09.2018 22:00:00 7,7 6,5 16 9 - - SW 0,0
24.09.2018 21:00:00 7,6 6,1 15 8 - - SW 0,0
24.09.2018 20:00:00 7,5 6,0 21 11 - - WSW 0,0
24.09.2018 19:00:00 9,0 6,9 16 9 - - WSW 0,0
24.09.2018 18:00:00 9,2 6,7 21 11 - - W 0,0
24.09.2018 17:00:00 9,6 8,3 22 12 - - WSW 0,4
24.09.2018 16:00:00 10,2 5,0 24 13 - - W 0,0
24.09.2018 15:00:00 10,7 5,5 24 13 - - W 0,0
24.09.2018 14:00:00 9,8 5,9 26 14 - - WSW 0,0
24.09.2018 13:00:00 10,2 5,3 21 11 - - WSW 0,0
24.09.2018 12:00:00 10,0 6,0 21 11 - - WSW 0,0
24.09.2018 11:00:00 9,8 5,9 16 9 - - WSW 0,0
24.09.2018 10:00:00 8,4 6,2 18 10 - - WSW 0,0
24.09.2018 09:00:00 6,8 5,3 13 7 - - SSW 0,0
24.09.2018 08:00:00 4,2 3,3 11 6 - - S 0,0
24.09.2018 07:00:00 3,8 2,6 9 5 - - S 0,0
24.09.2018 06:00:00 3,7 2,5 9 5 - - S 0,0
24.09.2018 05:00:00 4,4 2,3 9 5 - - SSE 0,0
24.09.2018 04:00:00 4,3 2,0 9 5 - - SSW 0,0
24.09.2018 03:00:00 4,7 2,6 11 6 - - SW 0,0
24.09.2018 02:00:00 5,1 2,9 11 6 - - WSW 0,0
24.09.2018 01:00:00 4,6 2,7 11 6 - - W 0,0
24.09.2018 00:00:00 4,4 2,4 9 5 - - W 0,0
23.09.2018 23:00:00 4,9 2,7 15 8 - - W 0,0
23.09.2018 22:00:00 5,7 3,0 8 4 - - W 0,0
23.09.2018 21:00:00 5,4 3,0 13 7 - - W 0,0
23.09.2018 20:00:00 6,6 3,0 22 12 - - W 0,0
23.09.2018 19:00:00 8,7 3,5 22 12 - - WNW 0,0
23.09.2018 18:00:00 10,3 3,6 29 16 - - W 0,0
23.09.2018 17:00:00 12,7 4,5 26 14 - - W 0,0
23.09.2018 16:00:00 12,1 3,2 24 13 - - W 0,0
23.09.2018 15:00:00 11,5 5,4 18 10 - - WNW 0,0
23.09.2018 14:00:00 9,0 5,2 21 11 - - WNW 0,2
23.09.2018 13:00:00 10,0 3,5 11 6 - - WNW 0,0
23.09.2018 12:00:00 9,0 4,0 15 8 - - WNW 0,0
23.09.2018 11:00:00 8,8 5,4 13 7 - - WNW 0,0
23.09.2018 10:00:00 6,5 5,5 11 6 - - W 0,0
23.09.2018 09:00:00 4,4 4,1 9 5 - - W 0,0
23.09.2018 08:00:00 3,3 3,2 8 4 - - WSW 0,0
23.09.2018 07:00:00 3,1 2,7 8 4 - - W 0,0
23.09.2018 06:00:00 3,1 2,8 8 4 - - WSW 0,0
23.09.2018 05:00:00 3,3 2,5 8 4 - - SW 0,0
23.09.2018 04:00:00 3,7 3,1 5 3 - - SW 0,0
23.09.2018 03:00:00 3,8 3,1 5 3 - - WSW 0,0
23.09.2018 02:00:00 4,1 3,2 9 5 - - WSW 0,0
23.09.2018 01:00:00 4,0 3,0 8 4 - - SW 0,0
23.09.2018 00:00:00 3,9 3,1 5 3 - - SSW 0,0
22.09.2018 23:00:00 3,9 2,9 8 4 - - SSW 0,0
22.09.2018 22:00:00 4,5 3,1 11 6 - - W 0,0
22.09.2018 21:00:00 5,7 3,5 13 7 - - W 0,0
22.09.2018 20:00:00 6,1 3,3 13 7 - - W 0,0
22.09.2018 19:00:00 7,8 2,9 16 9 - - W 0,0
22.09.2018 18:00:00 9,8 3,1 26 14 - - W 0,0
22.09.2018 17:00:00 11,0 3,5 24 13 - - W 0,0
22.09.2018 16:00:00 11,6 5,0 21 11 - - W 0,0
22.09.2018 15:00:00 9,9 3,5 26 14 - - W 0,0
22.09.2018 14:00:00 9,7 4,3 31 17 48 26 W 0,0
22.09.2018 13:00:00 10,5 4,3 24 13 - - W 0,0
22.09.2018 12:00:00 9,3 3,3 29 16 50 27 W 0,0
22.09.2018 11:00:00 8,6 4,5 31 17 - - W 0,0
22.09.2018 10:00:00 7,7 5,2 26 14 - - WSW 0,0
22.09.2018 09:00:00 6,9 4,7 21 11 - - SW 0,0
22.09.2018 08:00:00 5,6 4,5 22 12 - - WSW 0,0
22.09.2018 07:00:00 6,1 4,7 22 12 - - W 0,0
22.09.2018 06:00:00 6,1 5,0 16 9 - - WSW 0,0
22.09.2018 05:00:00 6,0 4,6 28 15 50 27 WSW 0,0
22.09.2018 04:00:00 6,1 4,7 26 14 - - WSW 0,0
22.09.2018 03:00:00 6,3 4,8 34 18 57 31 WSW 0,0
22.09.2018 02:00:00 6,3 4,3 28 15 - - WSW 0,0
22.09.2018 01:00:00 6,1 4,4 26 14 - - WSW 0,0
22.09.2018 00:00:00 6,3 4,1 29 16 48 26 WSW 0,0
21.09.2018 23:00:00 6,6 3,6 35 19 54 29 W 0,0
21.09.2018 22:00:00 6,8 4,9 31 17 - - WSW 0,0
21.09.2018 21:00:00 7,7 5,6 26 14 - - WSW 0,0
21.09.2018 20:00:00 7,5 4,8 26 14 - - WSW 0,0
21.09.2018 19:00:00 8,5 4,5 34 18 48 26 W 0,0
21.09.2018 18:00:00 10,1 4,5 34 18 52 28 W 0,0
21.09.2018 17:00:00 11,1 4,3 44 24 59 32 W 0,0
21.09.2018 16:00:00 11,2 7,1 34 18 46 25 W 0,0
21.09.2018 15:00:00 10,4 7,4 31 17 48 26 W 0,2
21.09.2018 14:00:00 10,2 6,4 24 13 - - W 0,0
21.09.2018 13:00:00 9,3 6,8 24 13 - - WSW 0,0
21.09.2018 12:00:00 9,0 6,9 31 17 - - WSW 0,0
21.09.2018 11:00:00 7,6 6,3 28 15 52 28 WSW 0,0
21.09.2018 10:00:00 7,4 5,9 24 13 - - WSW 0,0
21.09.2018 09:00:00 6,3 5,8 26 14 - - WSW 0,2
21.09.2018 08:00:00 5,4 5,3 28 15 - - WSW 0,0
21.09.2018 07:00:00 4,9 4,9 26 14 - - WSW 0,0
21.09.2018 06:00:00 4,9 4,8 21 11 - - WSW 0,0
21.09.2018 05:00:00 5,2 5,2 24 13 - - W 0,0
21.09.2018 04:00:00 5,1 5,1 13 7 - - W 0,2
21.09.2018 03:00:00 5,0 4,4 15 8 - - WNW 0,0
21.09.2018 02:00:00 5,2 4,7 18 10 - - WNW 0,6
21.09.2018 01:00:00 5,3 5,0 18 10 - - NW 0,6
21.09.2018 00:00:00 5,5 4,4 16 9 - - NNW 0,4
20.09.2018 23:00:00 6,8 3,4 15 8 - - NE 0,6
20.09.2018 22:00:00 8,4 4,3 8 4 - - NE 0,0
20.09.2018 21:00:00 7,9 4,8 5 3 - - SSE 0,0
20.09.2018 20:00:00 8,7 5,4 5 3 - - NNE 0,0
20.09.2018 19:00:00 9,1 5,2 2 1 - - ESE 0,0
20.09.2018 18:00:00 9,6 5,8 11 6 - - SSE 0,0
20.09.2018 17:00:00 9,7 6,0 13 7 - - SSW 0,0
20.09.2018 16:00:00 9,8 6,2 18 10 - - SSW 0,0

tt = Température de l'air
td = dewpoint
ff = Vitesse du vent
fx = gusts
dd = Direction du vent
rr = Quantités de précipitations

stations d'obs. à proximité